Time;durP1;ratioP1;P1;durP2;ratioP2;P2;SDS_P1;SDS_P2;PMS_P1;PMS_P2;Temp;Humidity;BMP_temperature;BMP_pressure;BME280_temperature;BME280_humidity;BME280_pressure;Samples;Min_cycle;Max_cycle;Signal;HPM_P1;HPM_P2
2023/05/12 00:00:06;;;;;;;1.43;1.33;;;;;;;;;;5015312;28;20246;-85
2023/05/12 00:02:35;;;;;;;1.43;1.33;;;;;;;;;;5015314;28;20218;-85
2023/05/12 00:05:04;;;;;;;1.63;1.53;;;;;;;;;;5015039;28;20216;-85
2023/05/12 00:07:33;;;;;;;1.30;1.20;;;;;;;;;;5015571;28;20191;-85
2023/05/12 00:10:03;;;;;;;1.83;1.70;;;;;;;;;;5015359;28;20224;-85
2023/05/12 00:12:31;;;;;;;1.90;1.53;;;;;;;;;;5015020;28;20204;-85
2023/05/12 00:15:00;;;;;;;2.23;2.03;;;;;;;;;;5015233;28;20250;-85
2023/05/12 00:17:28;;;;;;;1.57;1.47;;;;;;;;;;5014015;28;20228;-85
2023/05/12 00:19:57;;;;;;;1.73;1.63;;;;;;;;;;5014570;28;20213;-85
2023/05/12 00:22:28;;;;;;;2.23;2.13;;;;;;;;;;5015398;28;20303;-85
2023/05/12 00:24:57;;;;;;;3.13;2.10;;;;;;;;;;5014991;28;20243;-85
2023/05/12 00:27:26;;;;;;;3.83;2.50;;;;;;;;;;5014663;28;20310;-85
2023/05/12 00:29:55;;;;;;;4.00;2.53;;;;;;;;;;5015054;28;20254;-84
2023/05/12 00:32:23;;;;;;;1.23;1.23;;;;;;;;;;5014419;28;20196;-85
2023/05/12 00:34:53;;;;;;;2.73;2.53;;;;;;;;;;5014351;28;20198;-85
2023/05/12 00:37:21;;;;;;;2.13;1.47;;;;;;;;;;5014637;28;20271;-85
2023/05/12 00:39:50;;;;;;;3.27;1.97;;;;;;;;;;5014543;28;20239;-85
2023/05/12 00:42:18;;;;;;;1.90;1.80;;;;;;;;;;5014436;28;20205;-85
2023/05/12 00:44:48;;;;;;;2.67;1.80;;;;;;;;;;5014451;28;20218;-85
2023/05/12 00:47:16;;;;;;;3.13;1.83;;;;;;;;;;5014405;28;20208;-85
2023/05/12 00:49:45;;;;;;;1.57;1.47;;;;;;;;;;5014317;28;20203;-85
2023/05/12 00:52:13;;;;;;;2.57;1.90;;;;;;;;;;5014147;28;20239;-85
2023/05/12 00:54:43;;;;;;;2.07;1.87;;;;;;;;;;5014656;28;20204;-85
2023/05/12 00:57:11;;;;;;;5.83;2.93;;;;;;;;;;5014148;28;20295;-85
2023/05/12 00:59:40;;;;;;;1.83;1.73;;;;;;;;;;5014011;28;20254;-85
2023/05/12 01:02:10;;;;;;;1.67;1.57;;;;;;;;;;5014016;28;20275;-85
2023/05/12 01:04:39;;;;;;;4.93;4.10;;;;;;;;;;5014485;28;20207;-85
2023/05/12 01:07:09;;;;;;;1.70;1.60;;;;;;;;;;5013633;28;20299;-85
2023/05/12 01:09:38;;;;;;;1.77;1.67;;;;;;;;;;5013902;28;20263;-85
2023/05/12 01:12:06;;;;;;;4.40;1.43;;;;;;;;;;5014047;28;20211;-85
2023/05/12 01:14:35;;;;;;;3.03;2.73;;;;;;;;;;5013788;28;20231;-85
2023/05/12 01:17:08;;;;;;;4.17;2.50;;;;;;;;;;5014267;28;20270;-85
2023/05/12 01:19:41;;;;;;;2.50;2.17;;;;;;;;;;5013630;28;20227;-85
2023/05/12 01:22:09;;;;;;;1.93;1.83;;;;;;;;;;5013355;28;20295;-85
2023/05/12 01:24:43;;;;;;;2.37;2.17;;;;;;;;;;5014117;28;20200;-85
2023/05/12 01:27:13;;;;;;;3.17;2.63;;;;;;;;;;5013538;28;20223;-85
2023/05/12 01:29:41;;;;;;;3.73;3.13;;;;;;;;;;5012419;28;20295;-85
2023/05/12 01:32:10;;;;;;;4.90;3.27;;;;;;;;;;5013581;28;20212;-85
2023/05/12 01:34:38;;;;;;;2.93;2.73;;;;;;;;;;5013673;28;20292;-85
2023/05/12 01:37:07;;;;;;;5.13;3.37;;;;;;;;;;5013283;28;20250;-86
2023/05/12 01:39:35;;;;;;;2.87;2.63;;;;;;;;;;5013460;28;20234;-85
2023/05/12 01:42:04;;;;;;;4.63;2.87;;;;;;;;;;5013227;28;20191;-85
2023/05/12 01:44:34;;;;;;;4.87;2.77;;;;;;;;;;5013485;28;20235;-85
2023/05/12 01:47:02;;;;;;;2.40;2.20;;;;;;;;;;5012936;28;20199;-85
2023/05/12 01:49:31;;;;;;;4.87;2.93;;;;;;;;;;5013409;28;20212;-85
2023/05/12 01:51:59;;;;;;;1.93;1.83;;;;;;;;;;5013087;28;20196;-85
2023/05/12 01:54:27;;;;;;;4.17;3.03;;;;;;;;;;5013266;28;20215;-85
2023/05/12 01:56:56;;;;;;;4.20;3.07;;;;;;;;;;5013195;28;20206;-85
2023/05/12 01:59:26;;;;;;;2.37;2.20;;;;;;;;;;5013124;28;20266;-85
2023/05/12 02:01:56;;;;;;;3.07;2.67;;;;;;;;;;5012940;28;20258;-85
2023/05/12 02:04:24;;;;;;;3.53;2.80;;;;;;;;;;5013604;28;20203;-85
2023/05/12 02:06:53;;;;;;;5.80;2.43;;;;;;;;;;5012945;28;20204;-85
2023/05/12 02:09:21;;;;;;;5.60;4.00;;;;;;;;;;5012719;28;20235;-85
2023/05/12 02:11:50;;;;;;;5.47;4.20;;;;;;;;;;5012754;28;20297;-85
2023/05/12 02:14:18;;;;;;;3.37;3.07;;;;;;;;;;5013336;28;20204;-85
2023/05/12 02:16:51;;;;;;;7.57;4.00;;;;;;;;;;5012515;28;20208;-86
2023/05/12 02:19:21;;;;;;;6.67;3.00;;;;;;;;;;5012800;28;20282;-85
2023/05/12 02:21:49;;;;;;;4.67;4.27;;;;;;;;;;5013385;28;20230;-85
2023/05/12 02:24:18;;;;;;;1.30;1.30;;;;;;;;;;5012559;28;20303;-88
2023/05/12 02:26:46;;;;;;;0.60;0.60;;;;;;;;;;5013289;28;20262;-90
2023/05/12 02:29:14;;;;;;;0.70;0.70;;;;;;;;;;5013261;28;20262;-90
2023/05/12 02:31:43;;;;;;;0.90;0.90;;;;;;;;;;5013073;28;20224;-92
2023/05/12 02:34:11;;;;;;;0.60;0.60;;;;;;;;;;5014102;28;20217;-93
2023/05/12 02:36:41;;;;;;;0.50;0.50;;;;;;;;;;5014577;28;20203;-93
2023/05/12 02:39:10;;;;;;;0.60;0.60;;;;;;;;;;5013974;28;20242;-94
2023/05/12 02:41:38;;;;;;;0.60;0.60;;;;;;;;;;5013552;28;20210;-93
2023/05/12 02:44:07;;;;;;;0.70;0.70;;;;;;;;;;5013612;28;20239;-91
2023/05/12 02:46:36;;;;;;;0.70;0.70;;;;;;;;;;5013139;28;20262;-91
2023/05/12 02:49:04;;;;;;;0.70;0.70;;;;;;;;;;5012764;28;20200;-90
2023/05/12 02:51:32;;;;;;;0.60;0.60;;;;;;;;;;5012788;28;20196;-90
2023/05/12 02:54:02;;;;;;;0.60;0.60;;;;;;;;;;5013053;28;20303;-91
2023/05/12 02:56:31;;;;;;;0.70;0.70;;;;;;;;;;5012733;28;20211;-92
2023/05/12 02:59:01;;;;;;;0.70;0.70;;;;;;;;;;5012695;28;20198;-92
2023/05/12 03:01:29;;;;;;;0.60;0.60;;;;;;;;;;5013608;28;20227;-92
2023/05/12 03:03:58;;;;;;;0.60;0.60;;;;;;;;;;5013177;28;20203;-91
2023/05/12 03:06:26;;;;;;;0.60;0.60;;;;;;;;;;5012849;28;20273;-90
2023/05/12 03:08:55;;;;;;;0.70;0.70;;;;;;;;;;5012497;28;20223;-90
2023/05/12 03:11:25;;;;;;;0.70;0.70;;;;;;;;;;5012699;28;20191;-90
2023/05/12 03:13:53;;;;;;;0.60;0.60;;;;;;;;;;5012619;28;20235;-91
2023/05/12 03:16:22;;;;;;;0.60;0.60;;;;;;;;;;5013052;28;20208;-90
2023/05/12 03:18:50;;;;;;;0.60;0.60;;;;;;;;;;5013190;28;20207;-90
2023/05/12 03:21:19;;;;;;;0.70;0.70;;;;;;;;;;5012272;28;20211;-91
2023/05/12 03:23:47;;;;;;;0.60;0.60;;;;;;;;;;5012179;28;20290;-91
2023/05/12 03:26:15;;;;;;;0.63;0.63;;;;;;;;;;5012920;28;20238;-90
2023/05/12 03:28:45;;;;;;;0.70;0.70;;;;;;;;;;5012024;28;20219;-90
2023/05/12 03:31:14;;;;;;;0.60;0.60;;;;;;;;;;5011899;28;20212;-91
2023/05/12 03:33:42;;;;;;;0.70;0.70;;;;;;;;;;5012495;28;20298;-90
2023/05/12 03:36:10;;;;;;;0.60;0.60;;;;;;;;;;5012683;28;20211;-90
2023/05/12 03:38:39;;;;;;;0.63;0.63;;;;;;;;;;5012325;28;20204;-90
2023/05/12 03:41:07;;;;;;;0.60;0.60;;;;;;;;;;5012363;28;20224;-91
2023/05/12 03:43:36;;;;;;;0.60;0.60;;;;;;;;;;5012210;28;20277;-91
2023/05/12 03:46:06;;;;;;;0.60;0.60;;;;;;;;;;5012600;28;20211;-91
2023/05/12 03:48:34;;;;;;;0.60;0.60;;;;;;;;;;5012424;28;20258;-89
2023/05/12 03:51:03;;;;;;;0.60;0.60;;;;;;;;;;5012218;28;20250;-90
2023/05/12 03:53:31;;;;;;;0.60;0.60;;;;;;;;;;5014613;28;20200;-90
2023/05/12 03:56:04;;;;;;;0.70;0.70;;;;;;;;;;5015907;28;20246;-90
2023/05/12 03:58:34;;;;;;;0.70;0.70;;;;;;;;;;5015396;28;20211;-87
2023/05/12 04:01:03;;;;;;;0.70;0.70;;;;;;;;;;5015312;28;20243;-87
2023/05/12 04:03:32;;;;;;;0.60;0.60;;;;;;;;;;5015877;28;20199;-87
2023/05/12 04:06:02;;;;;;;0.60;0.60;;;;;;;;;;5015517;28;20223;-87
2023/05/12 04:08:30;;;;;;;0.67;0.67;;;;;;;;;;5015287;28;20204;-87
2023/05/12 04:11:00;;;;;;;0.60;0.60;;;;;;;;;;5015399;28;20220;-87
2023/05/12 04:13:29;;;;;;;0.60;0.60;;;;;;;;;;5015628;28;20207;-87
2023/05/12 04:15:58;;;;;;;0.60;0.60;;;;;;;;;;5015137;28;20206;-87
2023/05/12 04:18:27;;;;;;;0.60;0.60;;;;;;;;;;5015649;28;20207;-87
2023/05/12 04:20:57;;;;;;;0.60;0.60;;;;;;;;;;5015161;28;20274;-87
2023/05/12 04:23:26;;;;;;;0.60;0.60;;;;;;;;;;5014993;28;20200;-86
2023/05/12 04:25:55;;;;;;;0.60;0.60;;;;;;;;;;5015651;28;20215;-87
2023/05/12 04:28:23;;;;;;;0.60;0.60;;;;;;;;;;5014906;28;20220;-86
2023/05/12 04:30:52;;;;;;;0.60;0.60;;;;;;;;;;5014634;28;20200;-87
2023/05/12 04:33:20;;;;;;;0.60;0.60;;;;;;;;;;5014999;28;20203;-88
2023/05/12 04:35:48;;;;;;;0.67;0.67;;;;;;;;;;5015630;28;20204;-89
2023/05/12 04:38:18;;;;;;;0.60;0.60;;;;;;;;;;5014927;28;20207;-89
2023/05/12 04:40:46;;;;;;;0.60;0.60;;;;;;;;;;5014824;28;20326;-89
2023/05/12 04:43:15;;;;;;;0.60;0.60;;;;;;;;;;5014806;28;20282;-89
2023/05/12 04:45:46;;;;;;;0.60;0.60;;;;;;;;;;5014724;28;20311;-90
2023/05/12 04:48:15;;;;;;;0.60;0.60;;;;;;;;;;5014883;28;20214;-90
2023/05/12 04:50:43;;;;;;;0.60;0.60;;;;;;;;;;5015164;28;20195;-89
2023/05/12 04:53:12;;;;;;;0.60;0.60;;;;;;;;;;5015138;28;20239;-90
2023/05/12 04:55:44;;;;;;;0.60;0.60;;;;;;;;;;5014380;28;20227;-89
2023/05/12 04:58:13;;;;;;;0.60;0.60;;;;;;;;;;5014669;28;20231;-90
2023/05/12 05:00:41;;;;;;;0.80;0.80;;;;;;;;;;5014738;28;20216;-89
2023/05/12 05:03:10;;;;;;;0.60;0.60;;;;;;;;;;5014565;28;20251;-89
2023/05/12 05:05:38;;;;;;;0.60;0.60;;;;;;;;;;5014521;28;20204;-89
2023/05/12 05:08:07;;;;;;;0.60;0.60;;;;;;;;;;5014192;28;20241;-89
2023/05/12 05:10:36;;;;;;;0.60;0.60;;;;;;;;;;5013714;28;20231;-88
2023/05/12 05:13:05;;;;;;;0.60;0.60;;;;;;;;;;5013994;28;20204;-88
2023/05/12 05:15:34;;;;;;;0.60;0.60;;;;;;;;;;5013775;28;20204;-87
2023/05/12 05:18:02;;;;;;;0.60;0.60;;;;;;;;;;5014081;28;20257;-87
2023/05/12 05:20:31;;;;;;;0.60;0.60;;;;;;;;;;5014115;28;20199;-87
2023/05/12 05:23:00;;;;;;;0.60;0.60;;;;;;;;;;5013967;28;20203;-87
2023/05/12 05:25:28;;;;;;;0.60;0.60;;;;;;;;;;5013502;28;20271;-86
2023/05/12 05:27:57;;;;;;;0.60;0.60;;;;;;;;;;5013840;28;20220;-87
2023/05/12 05:30:26;;;;;;;0.60;0.60;;;;;;;;;;5014104;28;20208;-87
2023/05/12 05:32:55;;;;;;;0.60;0.60;;;;;;;;;;5013781;28;20188;-87
2023/05/12 05:35:23;;;;;;;0.60;0.60;;;;;;;;;;5013256;28;20196;-86
2023/05/12 05:37:53;;;;;;;0.73;0.73;;;;;;;;;;5013555;28;20255;-87
2023/05/12 05:40:22;;;;;;;0.63;0.63;;;;;;;;;;5013303;28;20211;-86
2023/05/12 05:42:50;;;;;;;0.60;0.60;;;;;;;;;;5012988;28;20223;-87
2023/05/12 05:45:19;;;;;;;0.60;0.60;;;;;;;;;;5013241;28;20211;-86
2023/05/12 05:47:51;;;;;;;0.60;0.60;;;;;;;;;;5013384;28;20242;-86
2023/05/12 05:50:19;;;;;;;0.50;0.50;;;;;;;;;;5012970;28;20200;-86
2023/05/12 05:52:47;;;;;;;0.60;0.60;;;;;;;;;;5012992;28;20242;-86
2023/05/12 05:55:16;;;;;;;0.63;0.63;;;;;;;;;;5013120;28;20204;-85
2023/05/12 05:57:45;;;;;;;0.60;0.60;;;;;;;;;;5012289;28;20200;-85
2023/05/12 06:00:14;;;;;;;0.60;0.60;;;;;;;;;;5013373;28;20204;-85
2023/05/12 06:02:43;;;;;;;0.60;0.60;;;;;;;;;;5013152;28;20262;-85
2023/05/12 06:05:13;;;;;;;0.60;0.60;;;;;;;;;;5012739;28;20203;-84
2023/05/12 06:07:42;;;;;;;0.50;0.50;;;;;;;;;;5012951;28;20203;-84
2023/05/12 06:10:10;;;;;;;0.60;0.60;;;;;;;;;;5012787;28;20258;-84
2023/05/12 06:12:39;;;;;;;0.60;0.60;;;;;;;;;;5012643;28;20250;-84
2023/05/12 06:15:08;;;;;;;0.60;0.60;;;;;;;;;;5011908;28;20200;-85
2023/05/12 06:17:37;;;;;;;0.60;0.60;;;;;;;;;;5012634;28;20214;-84
2023/05/12 06:20:06;;;;;;;0.60;0.60;;;;;;;;;;5012845;28;20298;-84
2023/05/12 06:22:36;;;;;;;0.60;0.60;;;;;;;;;;5012599;28;20227;-84
2023/05/12 06:25:04;;;;;;;0.60;0.60;;;;;;;;;;5013134;28;20253;-88
2023/05/12 06:27:33;;;;;;;0.60;0.60;;;;;;;;;;5012820;28;20319;-88
2023/05/12 06:30:01;;;;;;;0.50;0.50;;;;;;;;;;5012760;28;20208;-88
2023/05/12 06:32:30;;;;;;;0.57;0.57;;;;;;;;;;5012841;28;20195;-88
2023/05/12 06:34:58;;;;;;;0.60;0.60;;;;;;;;;;5012881;28;20221;-88
2023/05/12 06:37:26;;;;;;;0.60;0.60;;;;;;;;;;5012595;28;20224;-89
2023/05/12 06:39:56;;;;;;;0.60;0.60;;;;;;;;;;5012608;28;20196;-88
2023/05/12 06:42:25;;;;;;;0.60;0.60;;;;;;;;;;5012575;28;20220;-88
2023/05/12 06:44:56;;;;;;;0.60;0.60;;;;;;;;;;5013326;28;20212;-88
2023/05/12 06:47:25;;;;;;;0.50;0.50;;;;;;;;;;5012782;28;20203;-89
2023/05/12 06:49:53;;;;;;;0.57;0.57;;;;;;;;;;5012963;28;20287;-88
2023/05/12 06:52:22;;;;;;;0.50;0.50;;;;;;;;;;5012174;28;20227;-88
2023/05/12 06:54:51;;;;;;;0.60;0.60;;;;;;;;;;5012735;28;20278;-88
2023/05/12 06:57:21;;;;;;;0.50;0.50;;;;;;;;;;5012457;28;20267;-89
2023/05/12 06:59:49;;;;;;;0.57;0.57;;;;;;;;;;5012545;28;20257;-89
2023/05/12 07:02:17;;;;;;;0.60;0.60;;;;;;;;;;5012290;28;20270;-89
2023/05/12 07:04:46;;;;;;;0.50;0.50;;;;;;;;;;5012604;28;20294;-89
2023/05/12 07:07:15;;;;;;;0.57;0.57;;;;;;;;;;5012322;28;20204;-90
2023/05/12 07:09:44;;;;;;;0.60;0.60;;;;;;;;;;5011812;28;20236;-89
2023/05/12 07:12:12;;;;;;;0.50;0.50;;;;;;;;;;5012355;28;20231;-88
2023/05/12 07:14:42;;;;;;;0.50;0.50;;;;;;;;;;5012246;28;20215;-88
2023/05/12 07:17:10;;;;;;;0.50;0.50;;;;;;;;;;5012375;28;20291;-89
2023/05/12 07:19:39;;;;;;;0.50;0.50;;;;;;;;;;5012020;28;20201;-89
2023/05/12 07:22:08;;;;;;;0.50;0.50;;;;;;;;;;5011905;28;20212;-89
2023/05/12 07:24:37;;;;;;;0.60;0.60;;;;;;;;;;5012297;28;20246;-88
2023/05/12 07:27:07;;;;;;;0.50;0.50;;;;;;;;;;5011693;28;20229;-82
2023/05/12 07:29:35;;;;;;;0.57;0.57;;;;;;;;;;5015908;28;20204;-83
2023/05/12 07:32:05;;;;;;;0.60;0.60;;;;;;;;;;5015590;28;20256;-87
2023/05/12 07:34:34;;;;;;;0.60;0.60;;;;;;;;;;5016473;28;20228;-87
2023/05/12 07:37:02;;;;;;;0.60;0.60;;;;;;;;;;5016028;28;20212;-85
2023/05/12 07:39:31;;;;;;;0.50;0.50;;;;;;;;;;5015896;28;20228;-86
2023/05/12 07:42:00;;;;;;;0.50;0.50;;;;;;;;;;5016323;28;20202;-86
2023/05/12 07:44:29;;;;;;;0.60;0.60;;;;;;;;;;5015625;28;20259;-86
2023/05/12 07:46:58;;;;;;;0.60;0.60;;;;;;;;;;5015649;28;20294;-86
2023/05/12 07:49:27;;;;;;;0.57;0.57;;;;;;;;;;5015785;28;20206;-86
2023/05/12 07:51:56;;;;;;;1.03;1.03;;;;;;;;;;5016135;28;20291;-89
2023/05/12 07:54:24;;;;;;;0.50;0.50;;;;;;;;;;5015550;28;20244;-83
2023/05/12 07:56:53;;;;;;;0.50;0.50;;;;;;;;;;5015309;28;20236;-86
2023/05/12 07:59:21;;;;;;;0.50;0.50;;;;;;;;;;5015800;28;20261;-86
2023/05/12 08:01:50;;;;;;;0.50;0.50;;;;;;;;;;5015580;28;20193;-88
2023/05/12 08:04:19;;;;;;;0.50;0.50;;;;;;;;;;5015744;28;20222;-90
2023/05/12 08:06:49;;;;;;;0.40;0.40;;;;;;;;;;5015968;28;20248;-90
2023/05/12 08:09:17;;;;;;;0.50;0.50;;;;;;;;;;5015556;28;20320;-89
2023/05/12 08:11:45;;;;;;;0.70;0.70;;;;;;;;;;5015498;28;20292;-87
2023/05/12 08:14:18;;;;;;;0.50;0.50;;;;;;;;;;5015370;28;20198;-89
2023/05/12 08:16:46;;;;;;;0.50;0.50;;;;;;;;;;5015797;28;20197;-90
2023/05/12 08:19:15;;;;;;;1.03;1.03;;;;;;;;;;5014678;28;20230;-89
2023/05/12 08:21:43;;;;;;;0.50;0.50;;;;;;;;;;5015306;28;20219;-89
2023/05/12 08:24:13;;;;;;;1.60;1.60;;;;;;;;;;5015158;28;20325;-89
2023/05/12 08:26:42;;;;;;;0.50;0.50;;;;;;;;;;5015175;28;20198;-89
2023/05/12 08:29:10;;;;;;;0.60;0.60;;;;;;;;;;5014999;28;20231;-88
2023/05/12 08:31:39;;;;;;;0.70;0.70;;;;;;;;;;5015171;28;20210;-88
2023/05/12 08:34:07;;;;;;;0.47;0.47;;;;;;;;;;5014144;28;20258;-88
2023/05/12 08:36:38;;;;;;;0.40;0.40;;;;;;;;;;5014744;28;20260;-88
2023/05/12 08:39:08;;;;;;;0.50;0.50;;;;;;;;;;5014010;28;20203;-88
2023/05/12 08:41:43;;;;;;;0.50;0.50;;;;;;;;;;5015022;28;20213;-89
2023/05/12 08:44:13;;;;;;;0.50;0.50;;;;;;;;;;5014317;28;20237;-88
2023/05/12 08:46:42;;;;;;;0.40;0.40;;;;;;;;;;5014697;28;20215;-88
2023/05/12 08:49:14;;;;;;;0.50;0.50;;;;;;;;;;5014594;28;20242;-88
2023/05/12 08:51:46;;;;;;;0.40;0.40;;;;;;;;;;5014297;28;20211;-88
2023/05/12 08:54:26;;;;;;;0.67;0.67;;;;;;;;;;5014233;28;20278;-88
2023/05/12 08:56:57;;;;;;;0.40;0.40;;;;;;;;;;5014290;28;20218;-85
2023/05/12 08:59:28;;;;;;;0.90;0.90;;;;;;;;;;5014029;28;20253;-87
2023/05/12 09:01:57;;;;;;;0.50;0.50;;;;;;;;;;5014447;28;20218;-88
2023/05/12 09:04:25;;;;;;;0.50;0.50;;;;;;;;;;5013939;28;20230;-87
2023/05/12 09:06:54;;;;;;;0.47;0.47;;;;;;;;;;5014309;28;20337;-87
2023/05/12 09:09:24;;;;;;;0.40;0.40;;;;;;;;;;5014281;28;20246;-87
2023/05/12 09:11:55;;;;;;;0.40;0.40;;;;;;;;;;5014223;28;20257;-87
2023/05/12 09:14:25;;;;;;;0.50;0.50;;;;;;;;;;5013990;28;20203;-87
2023/05/12 09:16:58;;;;;;;0.40;0.40;;;;;;;;;;5014003;28;20207;-87
2023/05/12 09:19:27;;;;;;;0.40;0.40;;;;;;;;;;5013977;28;20200;-86
2023/05/12 09:21:55;;;;;;;0.40;0.40;;;;;;;;;;5013592;28;20205;-87
2023/05/12 09:24:35;;;;;;;0.70;0.70;;;;;;;;;;5013583;28;20222;-87
2023/05/12 09:27:03;;;;;;;0.40;0.40;;;;;;;;;;5013881;28;20235;-87
2023/05/12 09:29:33;;;;;;;0.70;0.70;;;;;;;;;;5013384;28;20324;-87
2023/05/12 09:32:15;;;;;;;0.50;0.50;;;;;;;;;;5013950;28;20212;-87
2023/05/12 09:34:44;;;;;;;0.40;0.40;;;;;;;;;;5013520;28;20298;-88
2023/05/12 09:37:12;;;;;;;0.50;0.50;;;;;;;;;;5013045;28;20209;-87
2023/05/12 09:39:42;;;;;;;0.40;0.40;;;;;;;;;;5013548;28;20203;-87
2023/05/12 09:42:12;;;;;;;0.40;0.40;;;;;;;;;;5013499;28;20279;-87
2023/05/12 09:44:43;;;;;;;0.40;0.40;;;;;;;;;;5015121;28;20266;-88
2023/05/12 09:47:14;;;;;;;1.27;1.27;;;;;;;;;;5013484;28;20200;-88
2023/05/12 09:49:48;;;;;;;0.87;0.87;;;;;;;;;;5011882;28;20342;-87
2023/05/12 09:52:17;;;;;;;0.63;0.63;;;;;;;;;;5009337;28;20198;-86
2023/05/12 09:54:46;;;;;;;1.03;1.03;;;;;;;;;;5005416;28;20207;-86
2023/05/12 09:57:16;;;;;;;0.40;0.40;;;;;;;;;;5008469;28;20208;-87
2023/05/12 09:59:46;;;;;;;0.40;0.40;;;;;;;;;;5013496;28;20215;-87
2023/05/12 10:02:15;;;;;;;0.50;0.50;;;;;;;;;;5002141;28;20235;-86
2023/05/12 10:04:58;;;;;;;0.40;0.40;;;;;;;;;;5010012;28;20227;-87
2023/05/12 10:07:28;;;;;;;0.40;0.40;;;;;;;;;;5014287;28;20311;-86
2023/05/12 10:09:59;;;;;;;0.40;0.40;;;;;;;;;;5015486;28;20264;-86
2023/05/12 10:12:31;;;;;;;0.40;0.40;;;;;;;;;;5001599;28;20330;-87
2023/05/12 10:15:01;;;;;;;0.40;0.40;;;;;;;;;;5012721;28;20207;-85
2023/05/12 10:17:30;;;;;;;0.40;0.40;;;;;;;;;;5011180;28;20206;-83
2023/05/12 10:19:59;;;;;;;0.40;0.40;;;;;;;;;;5009700;28;20266;-85
2023/05/12 10:22:29;;;;;;;0.40;0.40;;;;;;;;;;5012464;28;20254;-83
2023/05/12 10:24:57;;;;;;;0.40;0.40;;;;;;;;;;5002201;28;20224;-85
2023/05/12 10:27:27;;;;;;;0.40;0.40;;;;;;;;;;5005004;28;20254;-85
2023/05/12 10:29:55;;;;;;;0.30;0.30;;;;;;;;;;5005742;28;20242;-86
2023/05/12 10:32:25;;;;;;;0.40;0.40;;;;;;;;;;5010496;28;20218;-85
2023/05/12 10:34:55;;;;;;;0.40;0.40;;;;;;;;;;5006832;28;20233;-86
2023/05/12 10:37:23;;;;;;;0.40;0.40;;;;;;;;;;5008123;28;20201;-84
2023/05/12 10:39:53;;;;;;;0.77;0.77;;;;;;;;;;5003657;28;20217;-83
2023/05/12 10:42:24;;;;;;;0.40;0.40;;;;;;;;;;5009215;28;20203;-86
2023/05/12 10:44:54;;;;;;;0.30;0.30;;;;;;;;;;5005336;28;20223;-84
2023/05/12 10:47:26;;;;;;;0.40;0.40;;;;;;;;;;5011294;28;20244;-84
2023/05/12 10:49:57;;;;;;;0.40;0.40;;;;;;;;;;5007488;28;20222;-86
2023/05/12 10:52:26;;;;;;;0.40;0.40;;;;;;;;;;5012884;28;20212;-85
2023/05/12 10:55:00;;;;;;;0.40;0.40;;;;;;;;;;5013251;28;20225;-89
2023/05/12 10:57:29;;;;;;;0.40;0.40;;;;;;;;;;5007163;28;20206;-86
2023/05/12 10:59:59;;;;;;;0.40;0.40;;;;;;;;;;5009537;28;20218;-83
2023/05/12 11:02:32;;;;;;;0.40;0.40;;;;;;;;;;5002457;28;20198;-88
2023/05/12 11:05:04;;;;;;;0.33;0.33;;;;;;;;;;5003299;28;20216;-86
2023/05/12 11:07:35;;;;;;;11.40;9.13;;;;;;;;;;5004834;28;20299;-86
2023/05/12 11:10:05;;;;;;;5.33;4.83;;;;;;;;;;5013027;28;20243;-89
2023/05/12 11:12:36;;;;;;;5.90;4.67;;;;;;;;;;5014583;28;20212;-86
2023/05/12 11:15:05;;;;;;;11.40;10.23;;;;;;;;;;5012083;28;20245;-88
2023/05/12 11:17:38;;;;;;;5.53;4.97;;;;;;;;;;5014103;28;20234;-87
2023/05/12 11:20:09;;;;;;;9.80;5.90;;;;;;;;;;5012678;28;20294;-87
2023/05/12 11:22:37;;;;;;;8.20;5.53;;;;;;;;;;5009614;28;20203;-88
2023/05/12 11:25:12;;;;;;;9.30;8.17;;;;;;;;;;5012417;28;20282;-86
2023/05/12 11:27:46;;;;;;;5.23;2.97;;;;;;;;;;5011700;28;20254;-83
2023/05/12 11:30:16;;;;;;;8.60;5.37;;;;;;;;;;5007384;28;20203;-85
2023/05/12 11:32:46;;;;;;;5.33;4.60;;;;;;;;;;4999581;28;20211;-85
2023/05/12 11:35:15;;;;;;;7.80;6.43;;;;;;;;;;5011189;28;20208;-85
2023/05/12 11:37:47;;;;;;;9.00;5.60;;;;;;;;;;5012642;28;20296;-85
2023/05/12 11:40:16;;;;;;;2.67;2.27;;;;;;;;;;5011105;28;20218;-85
2023/05/12 11:42:47;;;;;;;3.90;3.60;;;;;;;;;;5010867;28;20214;-84
2023/05/12 11:45:22;;;;;;;8.53;5.07;;;;;;;;;;5010055;28;20256;-85
2023/05/12 11:47:53;;;;;;;2.93;2.73;;;;;;;;;;5010717;28;20208;-86
2023/05/12 11:50:24;;;;;;;6.87;4.93;;;;;;;;;;5004955;28;20204;-86
2023/05/12 11:52:53;;;;;;;4.50;3.73;;;;;;;;;;5011492;28;20211;-85
2023/05/12 11:55:24;;;;;;;6.23;4.77;;;;;;;;;;5010546;28;20261;-85
2023/05/12 11:57:57;;;;;;;4.87;3.67;;;;;;;;;;5011332;28;20239;-86
2023/05/12 12:00:31;;;;;;;5.27;4.83;;;;;;;;;;5010857;28;20285;-84
2023/05/12 12:03:13;;;;;;;3.27;2.97;;;;;;;;;;5010825;28;20270;-85
2023/05/12 12:05:44;;;;;;;7.37;6.00;;;;;;;;;;5011438;28;20234;-85
2023/05/12 12:08:13;;;;;;;4.67;4.20;;;;;;;;;;4993555;28;20241;-85
2023/05/12 12:10:44;;;;;;;3.93;3.63;;;;;;;;;;5005016;28;20248;-85
2023/05/12 12:13:13;;;;;;;5.77;4.67;;;;;;;;;;5009898;28;20219;-85
2023/05/12 12:15:41;;;;;;;6.17;5.57;;;;;;;;;;5014259;28;20231;-85
2023/05/12 12:18:10;;;;;;;7.90;5.83;;;;;;;;;;5014753;28;20208;-85
2023/05/12 12:20:40;;;;;;;2.87;2.67;;;;;;;;;;5014633;28;20296;-85
2023/05/12 12:23:08;;;;;;;6.90;4.27;;;;;;;;;;5014168;28;20210;-85
2023/05/12 12:25:40;;;;;;;4.83;4.43;;;;;;;;;;5007676;28;20310;-86
2023/05/12 12:28:08;;;;;;;4.80;4.20;;;;;;;;;;5010542;28;20265;-86
2023/05/12 12:30:37;;;;;;;4.27;3.70;;;;;;;;;;5012453;28;20265;-85
2023/05/12 12:33:05;;;;;;;3.13;2.13;;;;;;;;;;5008895;28;20204;-83
2023/05/12 12:35:34;;;;;;;3.57;3.27;;;;;;;;;;5010693;28;20205;-83
2023/05/12 12:38:04;;;;;;;4.23;3.67;;;;;;;;;;5008118;28;20211;-83
2023/05/12 12:40:32;;;;;;;5.90;4.67;;;;;;;;;;5006774;28;20348;-83
2023/05/12 12:43:01;;;;;;;5.93;5.33;;;;;;;;;;5012204;28;20207;-83
2023/05/12 12:45:30;;;;;;;6.33;4.03;;;;;;;;;;5008963;28;20218;-83
2023/05/12 12:47:58;;;;;;;3.43;3.13;;;;;;;;;;5012392;28;20231;-83
2023/05/12 12:50:27;;;;;;;4.87;4.07;;;;;;;;;;5010181;28;20206;-82
2023/05/12 12:52:55;;;;;;;4.50;4.00;;;;;;;;;;5023544;28;20217;-82
2023/05/12 12:55:25;;;;;;;4.73;3.20;;;;;;;;;;5010562;28;20195;-82
2023/05/12 12:57:54;;;;;;;3.30;3.00;;;;;;;;;;5016312;28;20211;-82
2023/05/12 13:00:23;;;;;;;3.20;2.90;;;;;;;;;;5005384;28;20239;-83
2023/05/12 13:02:52;;;;;;;5.30;3.50;;;;;;;;;;5009770;28;20196;-83
2023/05/12 13:05:21;;;;;;;2.77;2.57;;;;;;;;;;5009478;28;20219;-85
2023/05/12 13:07:50;;;;;;;3.83;3.47;;;;;;;;;;5007382;28;20295;-85
2023/05/12 13:10:19;;;;;;;3.97;3.27;;;;;;;;;;5018409;28;20307;-85
2023/05/12 13:12:48;;;;;;;11.27;3.23;;;;;;;;;;5017113;28;20243;-85
2023/05/12 13:15:17;;;;;;;4.97;3.77;;;;;;;;;;5004599;28;20224;-86
2023/05/12 13:17:46;;;;;;;2.27;2.17;;;;;;;;;;5012366;28;20245;-86
2023/05/12 13:20:15;;;;;;;3.27;2.60;;;;;;;;;;5015114;28;20205;-85
2023/05/12 13:22:44;;;;;;;3.17;2.57;;;;;;;;;;5015783;28;20239;-85
2023/05/12 13:25:13;;;;;;;2.07;1.97;;;;;;;;;;5014325;28;20207;-85
2023/05/12 13:27:41;;;;;;;3.23;2.93;;;;;;;;;;5006593;28;20284;-85
2023/05/12 13:30:12;;;;;;;4.53;2.77;;;;;;;;;;5009268;28;20209;-87
2023/05/12 13:32:41;;;;;;;2.37;2.17;;;;;;;;;;5000397;28;20206;-85
2023/05/12 13:35:10;;;;;;;1.70;1.60;;;;;;;;;;4996843;28;20194;-85
2023/05/12 13:37:38;;;;;;;2.60;2.40;;;;;;;;;;5009501;28;20212;-84
2023/05/12 13:40:08;;;;;;;3.10;2.80;;;;;;;;;;5008429;28;20213;-85
2023/05/12 13:42:37;;;;;;;2.67;2.47;;;;;;;;;;5011562;28;20210;-84
2023/05/12 13:45:06;;;;;;;2.37;2.17;;;;;;;;;;5028378;28;20214;-86
2023/05/12 13:47:36;;;;;;;2.53;2.27;;;;;;;;;;5014499;28;20198;-85
2023/05/12 13:50:05;;;;;;;3.40;2.23;;;;;;;;;;5027664;28;20215;-85
2023/05/12 13:52:34;;;;;;;3.03;2.73;;;;;;;;;;5013818;28;20210;-86
2023/05/12 13:55:03;;;;;;;2.70;2.10;;;;;;;;;;5015144;28;20210;-86
2023/05/12 13:57:31;;;;;;;2.10;1.90;;;;;;;;;;5008261;28;20223;-86
2023/05/12 14:00:00;;;;;;;2.47;1.77;;;;;;;;;;5005117;28;20242;-85
2023/05/12 14:02:29;;;;;;;3.43;3.13;;;;;;;;;;5010344;28;20217;-85
2023/05/12 14:04:59;;;;;;;2.73;2.40;;;;;;;;;;5011528;28;20217;-86
2023/05/12 14:07:28;;;;;;;3.00;2.80;;;;;;;;;;5017000;28;20280;-85
2023/05/12 14:09:59;;;;;;;3.67;3.37;;;;;;;;;;5012790;28;20240;-84
2023/05/12 14:12:27;;;;;;;2.13;1.97;;;;;;;;;;5007553;28;20213;-86
2023/05/12 14:14:56;;;;;;;4.67;3.90;;;;;;;;;;5008019;28;20212;-86
2023/05/12 14:17:46;;;;;;;3.70;3.40;;;;;;;;;;5013246;28;20211;-85
2023/05/12 14:20:17;;;;;;;4.33;3.93;;;;;;;;;;5009764;28;20208;-88
2023/05/12 14:22:45;;;;;;;6.73;5.40;;;;;;;;;;5008614;28;20227;-86
2023/05/12 14:25:14;;;;;;;8.57;6.37;;;;;;;;;;5012137;28;20211;-86
2023/05/12 14:27:44;;;;;;;7.93;5.87;;;;;;;;;;5009708;28;20229;-85
2023/05/12 14:30:13;;;;;;;5.10;3.23;;;;;;;;;;5008725;28;20201;-85
2023/05/12 14:32:41;;;;;;;7.20;3.93;;;;;;;;;;5007853;28;20224;-86
2023/05/12 14:35:10;;;;;;;15.37;8.70;;;;;;;;;;4999344;28;20221;-86
2023/05/12 14:37:40;;;;;;;6.83;5.10;;;;;;;;;;5007336;28;20200;-87
2023/05/12 14:40:09;;;;;;;7.33;6.33;;;;;;;;;;5010793;28;20301;-85
2023/05/12 14:42:38;;;;;;;6.53;5.93;;;;;;;;;;5011043;28;20209;-86
2023/05/12 14:45:07;;;;;;;10.47;6.07;;;;;;;;;;5004249;28;20253;-86
2023/05/12 14:47:36;;;;;;;8.83;6.23;;;;;;;;;;5011809;28;20221;-85
2023/05/12 14:50:05;;;;;;;7.60;5.37;;;;;;;;;;5007161;28;20211;-86
2023/05/12 14:52:37;;;;;;;6.10;5.47;;;;;;;;;;5010095;28;20274;-87
2023/05/12 14:55:10;;;;;;;7.80;6.17;;;;;;;;;;5008219;28;20211;-87